createdAt,value
2022-09-07T00:00:40.334Z,8.60
2022-09-07T00:03:07.092Z,7.85
2022-09-07T00:05:34.286Z,8.15
2022-09-07T00:08:00.971Z,7.32
2022-09-07T00:10:27.862Z,7.85
2022-09-07T00:12:54.481Z,7.80
2022-09-07T00:15:21.009Z,8.02
2022-09-07T00:17:47.550Z,9.35
2022-09-07T00:20:15.091Z,8.77
2022-09-07T00:22:41.675Z,8.48
2022-09-07T00:25:08.657Z,8.20
2022-09-07T00:27:35.195Z,8.65
2022-09-07T00:30:01.738Z,8.52
2022-09-07T00:32:28.310Z,8.98
2022-09-07T00:34:54.861Z,8.82
2022-09-07T00:37:21.447Z,9.63
2022-09-07T00:39:48.309Z,9.18
2022-09-07T00:42:16.451Z,9.27
2022-09-07T00:44:42.920Z,9.63
2022-09-07T00:47:35.807Z,9.07
2022-09-07T00:50:11.421Z,8.90
2022-09-07T00:52:40.989Z,9.00
2022-09-07T00:55:12.212Z,9.80
2022-09-07T00:57:43.302Z,9.40
2022-09-07T01:00:10.349Z,9.20
2022-09-07T01:02:37.267Z,10.30
2022-09-07T01:05:27.617Z,9.52
2022-09-07T01:07:56.308Z,10.13
2022-09-07T01:10:26.440Z,9.23
2022-09-07T01:12:53.127Z,11.35
2022-09-07T01:15:21.963Z,10.50
2022-09-07T01:18:00.883Z,12.98
2022-09-07T01:20:51.542Z,11.48
2022-09-07T01:23:17.990Z,10.75
2022-09-07T01:25:53.786Z,10.30
2022-09-07T01:28:26.599Z,8.75
2022-09-07T01:31:27.836Z,10.15
2022-09-07T01:34:21.299Z,9.05
2022-09-07T01:37:05.285Z,8.55
2022-09-07T01:39:42.311Z,11.52
2022-09-07T01:42:13.633Z,10.10
2022-09-07T01:44:47.088Z,9.90
2022-09-07T01:47:20.646Z,9.50
2022-09-07T01:50:01.983Z,10.23
2022-09-07T01:52:38.494Z,9.93
2022-09-07T01:55:14.860Z,11.63
2022-09-07T01:57:47.981Z,9.77
2022-09-07T02:00:19.877Z,8.82
2022-09-07T02:02:59.488Z,10.18
2022-09-07T02:05:39.886Z,9.82
2022-09-07T02:08:15.031Z,12.57
2022-09-07T02:10:50.437Z,10.32
2022-09-07T02:13:36.067Z,10.32
2022-09-07T02:16:10.982Z,9.52
2022-09-07T02:18:44.052Z,9.77
2022-09-07T02:21:11.209Z,11.77
2022-09-07T02:23:49.831Z,8.38
2022-09-07T02:26:22.633Z,9.80
2022-09-07T02:28:49.689Z,8.55
2022-09-07T02:31:16.480Z,10.05
2022-09-07T02:33:43.406Z,8.90
2022-09-07T02:36:13.555Z,10.48
2022-09-07T02:38:40.121Z,8.85
2022-09-07T02:41:30.965Z,9.40
2022-09-07T02:43:58.184Z,10.30
2022-09-07T02:46:46.263Z,10.93
2022-09-07T02:49:51.382Z,10.20
2022-09-07T02:52:17.846Z,9.35
2022-09-07T02:55:09.260Z,10.02
2022-09-07T02:58:00.940Z,10.63
2022-09-07T03:00:33.641Z,10.70
2022-09-07T03:03:00.214Z,10.60
2022-09-07T03:05:42.406Z,9.60
2022-09-07T03:08:38.271Z,9.90
2022-09-07T03:11:06.339Z,9.82
2022-09-07T03:13:33.547Z,10.80
2022-09-07T03:16:00.195Z,9.27
2022-09-07T03:18:27.999Z,10.20
2022-09-07T03:20:55.346Z,10.98
2022-09-07T03:23:22.089Z,10.80
2022-09-07T03:25:49.189Z,10.45
2022-09-07T03:28:16.299Z,10.90
2022-09-07T03:30:44.440Z,10.25
2022-09-07T03:33:11.598Z,10.90
2022-09-07T03:35:38.254Z,10.57
2022-09-07T03:38:04.822Z,11.05
2022-09-07T03:40:31.416Z,11.20
2022-09-07T03:42:57.966Z,12.15
2022-09-07T03:45:24.607Z,11.00
2022-09-07T03:47:51.217Z,10.45
2022-09-07T03:50:17.954Z,10.55
2022-09-07T03:52:44.689Z,11.75
2022-09-07T03:55:11.332Z,12.25
2022-09-07T03:57:37.955Z,13.18
2022-09-07T04:00:05.633Z,11.90
2022-09-07T04:02:32.274Z,16.55
2022-09-07T04:04:58.878Z,13.90
2022-09-07T04:07:25.435Z,13.30
2022-09-07T04:09:51.963Z,16.92
2022-09-07T04:12:18.608Z,16.27
2022-09-07T04:14:46.159Z,14.55
2022-09-07T04:17:12.836Z,15.05
2022-09-07T04:19:39.438Z,16.20
2022-09-07T04:22:06.001Z,12.75
2022-09-07T04:24:32.532Z,13.45
2022-09-07T04:26:59.171Z,16.77
2022-09-07T04:29:25.832Z,14.60
2022-09-07T04:31:52.366Z,13.07
2022-09-07T04:34:18.901Z,13.20
2022-09-07T04:36:45.515Z,11.13
2022-09-07T04:39:12.299Z,13.15
2022-09-07T04:41:39.055Z,13.15
2022-09-07T04:44:05.643Z,13.23
2022-09-07T04:46:34.622Z,12.73
2022-09-07T04:49:04.282Z,12.55
2022-09-07T04:51:32.255Z,13.43
2022-09-07T04:54:01.031Z,13.90
2022-09-07T04:56:28.108Z,11.88
2022-09-07T04:58:54.662Z,13.55
2022-09-07T05:01:23.396Z,13.93
2022-09-07T05:03:50.895Z,12.73
2022-09-07T05:06:21.845Z,13.10
2022-09-07T05:08:50.883Z,32.70
2022-09-07T05:11:18.710Z,12.70
2022-09-07T05:13:45.698Z,11.50
2022-09-07T05:16:16.969Z,12.45
2022-09-07T05:18:43.527Z,11.95
2022-09-07T05:21:12.715Z,15.18
2022-09-07T05:23:39.540Z,16.35
2022-09-07T05:26:06.918Z,13.77
2022-09-07T05:28:34.534Z,14.52
2022-09-07T05:31:21.425Z,13.57
2022-09-07T05:36:39.743Z,14.52
2022-09-07T05:39:07.295Z,13.10
2022-09-07T05:41:34.281Z,16.27
2022-09-07T05:46:47.761Z,13.90
2022-09-07T05:49:14.311Z,13.45
2022-09-07T05:51:41.228Z,15.35
2022-09-07T05:54:07.828Z,15.75
2022-09-07T05:56:36.158Z,23.83
2022-09-07T05:59:03.558Z,17.63
2022-09-07T06:01:30.372Z,14.90
2022-09-07T06:03:57.020Z,17.20
2022-09-07T06:06:23.916Z,14.82
2022-09-07T06:08:52.526Z,17.20
2022-09-07T06:11:22.670Z,16.20
2022-09-07T06:13:50.041Z,17.58
2022-09-07T06:16:18.575Z,15.20
2022-09-07T06:18:48.088Z,19.03
2022-09-07T06:23:43.571Z,16.77
2022-09-07T06:26:11.205Z,16.58
2022-09-07T06:28:40.516Z,18.25
2022-09-07T06:31:08.231Z,21.02
2022-09-07T06:33:36.052Z,17.33
2022-09-07T06:36:05.739Z,17.77
2022-09-07T06:38:34.401Z,16.77
2022-09-07T06:43:54.374Z,17.75
2022-09-07T06:49:08.786Z,17.67
2022-09-07T06:51:35.389Z,16.75
2022-09-07T06:56:48.811Z,15.75
2022-09-07T06:59:15.334Z,15.10
2022-09-07T07:01:41.985Z,15.57
2022-09-07T07:04:08.566Z,17.80
2022-09-07T07:06:36.577Z,16.88
2022-09-07T07:09:05.708Z,15.25
2022-09-07T07:11:32.408Z,14.48
2022-09-07T07:13:59.991Z,16.38
2022-09-07T07:16:26.594Z,14.65
2022-09-07T07:18:57.061Z,14.02
2022-09-07T07:21:24.093Z,14.23
2022-09-07T07:23:52.587Z,12.75
2022-09-07T07:26:21.407Z,13.00
2022-09-07T07:29:06.038Z,11.63
2022-09-07T07:31:33.714Z,10.73
2022-09-07T07:34:00.403Z,11.13
2022-09-07T07:36:28.194Z,9.50
2022-09-07T07:44:17.581Z,8.93
2022-09-07T07:46:50.773Z,8.93
2022-09-07T07:49:17.661Z,11.02
2022-09-07T07:54:34.105Z,7.93
2022-09-07T07:57:00.605Z,6.97
2022-09-07T07:59:27.168Z,8.07
2022-09-07T08:01:54.011Z,7.07
2022-09-07T08:04:20.622Z,10.70
2022-09-07T08:06:47.140Z,8.20
2022-09-07T08:09:13.687Z,5.93
2022-09-07T08:11:40.554Z,6.82
2022-09-07T08:14:08.929Z,6.43
2022-09-07T08:16:36.383Z,7.20
2022-09-07T08:19:03.478Z,6.43
2022-09-07T08:21:30.082Z,5.28
2022-09-07T08:23:56.632Z,4.82
2022-09-07T08:26:23.197Z,5.30
2022-09-07T08:28:49.760Z,6.63
2022-09-07T08:31:17.462Z,5.93
2022-09-07T08:33:44.692Z,5.30
2022-09-07T08:36:19.962Z,6.00
2022-09-07T08:38:47.501Z,6.10
2022-09-07T08:41:44.671Z,6.75
2022-09-07T08:44:56.294Z,5.15
2022-09-07T08:47:40.998Z,5.40
2022-09-07T08:50:12.762Z,5.10
2022-09-07T08:52:51.948Z,6.55
2022-09-07T08:58:04.265Z,4.50
2022-09-07T09:00:31.501Z,6.28
2022-09-07T09:06:27.611Z,5.13
2022-09-07T09:09:13.485Z,4.25
2022-09-07T09:11:49.157Z,4.88
2022-09-07T09:14:18.734Z,4.75
2022-09-07T09:16:50.478Z,4.50
2022-09-07T09:19:39.595Z,4.07
2022-09-07T09:24:41.112Z,4.20
2022-09-07T09:27:09.743Z,3.70
2022-09-07T09:29:36.337Z,4.07
2022-09-07T09:32:33.231Z,6.38
2022-09-07T09:35:12.604Z,4.82
2022-09-07T09:37:41.249Z,4.47
2022-09-07T09:40:22.362Z,3.60
2022-09-07T09:42:59.631Z,4.15
2022-09-07T09:45:29.972Z,4.88
2022-09-07T09:47:58.278Z,6.10
2022-09-07T09:53:42.234Z,3.53
2022-09-07T09:56:09.438Z,3.75
2022-09-07T10:01:33.603Z,3.88
2022-09-07T10:04:34.869Z,2.90
2022-09-07T10:07:08.332Z,3.13
2022-09-07T10:09:41.224Z,5.88
2022-09-07T10:12:24.632Z,5.57
2022-09-07T10:14:51.547Z,5.03
2022-09-07T10:17:30.343Z,3.58
2022-09-07T10:20:01.651Z,5.03
2022-09-07T10:22:35.762Z,4.78
2022-09-07T10:25:04.913Z,3.05
2022-09-07T10:30:07.093Z,8.65
2022-09-07T10:33:02.530Z,6.50
2022-09-07T10:35:34.372Z,5.68
2022-09-07T10:38:13.194Z,4.05
2022-09-07T10:41:01.114Z,3.22
2022-09-07T10:43:36.612Z,3.63
2022-09-07T10:52:44.553Z,2.63
2022-09-07T10:55:20.907Z,3.40
2022-09-07T10:58:08.419Z,3.10
2022-09-07T11:01:24.303Z,3.53
2022-09-07T11:04:04.181Z,2.97
2022-09-07T11:06:30.724Z,4.78
2022-09-07T11:09:20.035Z,3.80
2022-09-07T11:12:03.569Z,4.40
2022-09-07T11:14:36.822Z,4.72
2022-09-07T11:17:11.692Z,5.93
2022-09-07T11:19:52.147Z,4.80
2022-09-07T11:22:41.792Z,4.18
2022-09-07T11:25:31.606Z,4.53
2022-09-07T11:28:09.607Z,2.83
2022-09-07T11:31:00.212Z,3.72
2022-09-07T11:34:23.914Z,3.38
2022-09-07T11:36:39.088Z,5.90
2022-09-07T11:39:17.061Z,3.63
2022-09-07T11:42:01.238Z,4.28
2022-09-07T11:44:47.881Z,4.05
2022-09-07T11:47:42.408Z,5.18
2022-09-07T11:50:17.692Z,3.53
2022-09-07T11:52:55.886Z,6.15
2022-09-07T11:55:29.520Z,4.47
2022-09-07T11:58:35.426Z,6.00
2022-09-07T12:01:04.860Z,3.65
2022-09-07T12:03:43.766Z,3.03
2022-09-07T12:08:55.406Z,3.70
2022-09-07T12:11:31.118Z,3.78
2022-09-07T12:14:48.992Z,3.65
2022-09-07T12:17:21.835Z,5.67
2022-09-07T12:20:10.151Z,3.22
2022-09-07T12:22:37.886Z,5.35
2022-09-07T12:25:09.629Z,6.68
2022-09-07T12:27:37.922Z,2.35
2022-09-07T12:30:04.481Z,2.45
2022-09-07T12:32:54.342Z,2.17
2022-09-07T12:35:28.150Z,4.88
2022-09-07T12:38:02.400Z,4.43
2022-09-07T12:40:29.158Z,4.00
2022-09-07T12:43:14.106Z,5.32
2022-09-07T12:45:40.614Z,2.83
2022-09-07T12:48:29.517Z,3.00
2022-09-07T12:51:16.091Z,4.53
2022-09-07T12:53:48.486Z,2.22
2022-09-07T12:57:29.142Z,2.58
2022-09-07T12:59:42.303Z,2.67
2022-09-07T13:02:23.883Z,3.42
2022-09-07T13:05:18.125Z,8.05
2022-09-07T13:08:08.702Z,2.13
2022-09-07T13:10:43.167Z,4.30
2022-09-07T13:13:15.769Z,3.08
2022-09-07T13:15:49.868Z,3.22
2022-09-07T13:18:28.646Z,5.60
2022-09-07T13:23:35.794Z,3.28
2022-09-07T13:28:37.089Z,4.05
2022-09-07T13:31:16.882Z,1.98
2022-09-07T13:33:47.656Z,2.45
2022-09-07T13:36:47.507Z,4.78
2022-09-07T13:39:18.909Z,6.28
2022-09-07T13:41:52.351Z,6.28
2022-09-07T13:44:26.730Z,7.70
2022-09-07T13:46:58.868Z,3.10
2022-09-07T13:49:44.176Z,3.13
2022-09-07T13:52:19.274Z,3.70
2022-09-07T13:55:08.656Z,2.97
2022-09-07T13:58:11.259Z,3.97
2022-09-07T14:00:50.233Z,2.88
2022-09-07T14:05:43.706Z,2.47
2022-09-07T14:08:29.754Z,4.70
2022-09-07T14:10:56.293Z,3.25
2022-09-07T14:13:22.850Z,7.82
2022-09-07T14:15:50.967Z,2.58
2022-09-07T14:18:31.292Z,4.33
2022-09-07T14:20:58.764Z,4.38
2022-09-07T14:23:30.046Z,3.33
2022-09-07T14:26:26.393Z,5.05
2022-09-07T14:28:54.871Z,2.88
2022-09-07T14:31:23.962Z,3.25
2022-09-07T14:34:00.523Z,3.97
2022-09-07T14:36:45.359Z,2.70
2022-09-07T14:39:16.084Z,3.53
2022-09-07T14:41:43.549Z,3.38
2022-09-07T14:44:29.005Z,2.42
2022-09-07T14:46:57.431Z,2.53
2022-09-07T14:49:24.786Z,4.72
2022-09-07T14:51:52.950Z,4.50
2022-09-07T14:54:31.874Z,3.10
2022-09-07T14:57:11.633Z,3.35
2022-09-07T14:59:44.533Z,3.08
2022-09-07T15:02:18.167Z,3.63
2022-09-07T15:04:46.608Z,2.50
2022-09-07T15:07:48.754Z,2.30
2022-09-07T15:10:21.299Z,3.42
2022-09-07T15:12:49.513Z,4.60
2022-09-07T15:15:18.732Z,3.17
2022-09-07T15:17:45.896Z,5.70
2022-09-07T15:20:35.117Z,2.95
2022-09-07T15:23:08.810Z,3.10
2022-09-07T15:25:35.698Z,3.05
2022-09-07T15:28:02.501Z,3.95
2022-09-07T15:30:29.069Z,5.93
2022-09-07T15:32:57.373Z,4.32
2022-09-07T15:35:24.540Z,3.38
2022-09-07T15:38:59.424Z,3.75
2022-09-07T15:41:04.137Z,3.25
2022-09-07T15:43:31.479Z,3.13
2022-09-07T15:45:58.228Z,3.40
2022-09-07T15:48:25.629Z,2.05
2022-09-07T15:51:01.480Z,2.67
2022-09-07T15:56:20.308Z,4.03
2022-09-07T15:58:51.801Z,2.05
2022-09-07T16:04:05.069Z,3.10
2022-09-07T16:06:31.689Z,2.58
2022-09-07T16:08:58.272Z,5.50
2022-09-07T16:11:28.119Z,3.80
2022-09-07T16:13:57.371Z,2.92
2022-09-07T16:17:25.751Z,3.10
2022-09-07T16:19:15.226Z,3.75
2022-09-07T16:21:42.866Z,4.18
2022-09-07T16:24:09.858Z,2.13
2022-09-07T16:26:36.418Z,3.83
2022-09-07T16:29:03.495Z,1.17
2022-09-07T16:31:31.412Z,2.92
2022-09-07T16:33:58.138Z,3.97
2022-09-07T16:36:24.710Z,2.83
2022-09-07T16:39:01.336Z,2.78
2022-09-07T16:41:31.998Z,3.40
2022-09-07T16:43:59.109Z,4.03
2022-09-07T16:46:28.398Z,4.20
2022-09-07T16:48:55.294Z,3.63
2022-09-07T16:51:23.212Z,2.50
2022-09-07T16:53:51.693Z,4.50
2022-09-07T16:56:20.418Z,2.97
2022-09-07T16:58:51.067Z,3.08
2022-09-07T17:01:20.613Z,2.78
2022-09-07T17:03:51.199Z,4.20
2022-09-07T17:06:19.428Z,2.80
2022-09-07T17:08:47.121Z,5.73
2022-09-07T17:11:17.187Z,1.98
2022-09-07T17:13:44.768Z,2.40
2022-09-07T17:16:17.062Z,1.90
2022-09-07T17:21:37.027Z,2.33
2022-09-07T17:24:05.380Z,4.28
2022-09-07T17:26:32.631Z,2.57
2022-09-07T17:29:00.920Z,4.15
2022-09-07T17:34:20.127Z,2.22
2022-09-07T17:36:47.116Z,4.68
2022-09-07T17:39:16.021Z,1.85
2022-09-07T17:41:44.356Z,2.65
2022-09-07T17:44:11.329Z,3.90
2022-09-07T17:46:37.829Z,4.25
2022-09-07T17:49:07.016Z,2.20
2022-09-07T17:54:09.546Z,3.13
2022-09-07T17:56:37.093Z,2.78
2022-09-07T18:01:50.586Z,4.75
2022-09-07T18:04:17.270Z,4.38
2022-09-07T18:06:43.879Z,4.88
2022-09-07T18:09:11.631Z,2.78
2022-09-07T18:11:46.693Z,3.45
2022-09-07T18:14:14.696Z,4.82
2022-09-07T18:16:41.745Z,4.63
2022-09-07T18:19:08.728Z,6.93
2022-09-07T18:21:37.254Z,4.80
2022-09-07T18:24:11.784Z,3.97
2022-09-07T18:26:39.987Z,5.32
2022-09-07T18:29:18.662Z,5.43
2022-09-07T18:31:54.224Z,3.30
2022-09-07T18:34:20.948Z,7.07
2022-09-07T18:36:47.560Z,4.38
2022-09-07T18:39:14.105Z,5.45
2022-09-07T18:41:40.968Z,3.85
2022-09-07T18:45:27.085Z,3.55
2022-09-07T18:46:54.534Z,6.35
2022-09-07T18:49:21.102Z,2.70
2022-09-07T18:54:34.207Z,4.03
2022-09-07T18:57:00.716Z,8.40
2022-09-07T18:59:27.242Z,4.00
2022-09-07T19:01:54.097Z,5.50
2022-09-07T19:04:21.155Z,6.28
2022-09-07T19:06:47.988Z,3.25
2022-09-07T19:09:14.579Z,6.03
2022-09-07T19:11:42.443Z,2.60
2022-09-07T19:14:08.936Z,3.63
2022-09-07T19:16:36.363Z,4.05
2022-09-07T19:19:06.181Z,1.70
2022-09-07T19:21:35.759Z,2.20
2022-09-07T19:24:04.826Z,4.65
2022-09-07T19:26:34.364Z,3.28
2022-09-07T19:29:02.344Z,3.22
2022-09-07T19:31:30.948Z,3.47
2022-09-07T19:34:02.440Z,3.38
2022-09-07T19:36:33.183Z,4.20
2022-09-07T19:39:00.755Z,3.22
2022-09-07T19:41:28.279Z,3.35
2022-09-07T19:43:54.799Z,3.10
2022-09-07T19:46:24.965Z,3.05
2022-09-07T19:48:52.100Z,2.88
2022-09-07T19:51:19.919Z,2.38
2022-09-07T19:53:47.294Z,3.20
2022-09-07T19:56:16.972Z,3.22
2022-09-07T19:58:45.199Z,3.97
2022-09-07T20:01:14.254Z,1.95
2022-09-07T20:03:41.950Z,1.90
2022-09-07T20:06:11.631Z,2.97
2022-09-07T20:08:39.447Z,3.20
2022-09-07T20:11:08.547Z,3.15
2022-09-07T20:13:37.058Z,3.38
2022-09-07T20:16:13.279Z,2.93
2022-09-07T20:18:40.174Z,5.30
2022-09-07T20:21:09.414Z,2.30
2022-09-07T20:26:05.986Z,1.83
2022-09-07T20:28:34.432Z,3.53
2022-09-07T20:31:08.178Z,3.27
2022-09-07T20:33:35.109Z,2.10
2022-09-07T20:36:06.314Z,2.83
2022-09-07T20:38:42.118Z,5.20
2022-09-07T20:41:14.667Z,1.73
2022-09-07T20:43:41.267Z,6.32
2022-09-07T20:46:09.668Z,4.15
2022-09-07T20:48:37.538Z,4.27
2022-09-07T20:51:08.132Z,4.25
2022-09-07T20:53:35.187Z,3.83
2022-09-07T20:56:07.728Z,2.80
2022-09-07T20:58:35.393Z,2.90
2022-09-07T21:01:02.875Z,4.32
2022-09-07T21:03:30.036Z,2.40
2022-09-07T21:06:01.703Z,4.82
2022-09-07T21:08:28.552Z,2.45
2022-09-07T21:10:55.265Z,1.90
2022-09-07T21:13:21.799Z,2.90
2022-09-07T21:15:48.327Z,3.45
2022-09-07T21:18:18.712Z,5.72
2022-09-07T21:21:18.469Z,4.30
2022-09-07T21:23:43.068Z,4.50
2022-09-07T21:26:09.572Z,3.17
2022-09-07T21:28:36.054Z,5.65
2022-09-07T21:31:08.080Z,3.45
2022-09-07T21:33:36.033Z,4.80
2022-09-07T21:36:07.878Z,3.30
2022-09-07T21:38:35.700Z,4.80
2022-09-07T21:41:24.713Z,7.68
2022-09-07T21:43:58.456Z,3.33
2022-09-07T21:46:26.056Z,3.13
2022-09-07T21:48:53.076Z,3.85
2022-09-07T21:51:19.584Z,3.88
2022-09-07T21:53:51.583Z,3.95
2022-09-07T21:56:18.383Z,4.13
2022-09-07T21:58:44.959Z,2.55
2022-09-07T22:01:17.224Z,2.88
2022-09-07T22:03:45.568Z,5.15
2022-09-07T22:06:12.419Z,3.10
2022-09-07T22:08:40.450Z,4.20
2022-09-07T22:11:10.575Z,6.45
2022-09-07T22:13:37.623Z,3.55
2022-09-07T22:16:05.354Z,4.43
2022-09-07T22:18:32.271Z,3.00
2022-09-07T22:21:10.743Z,3.88
2022-09-07T22:23:40.133Z,4.43
2022-09-07T22:28:34.500Z,3.67
2022-09-07T22:31:11.070Z,3.47
2022-09-07T22:33:38.202Z,4.60
2022-09-07T22:36:11.269Z,3.97
2022-09-07T22:38:38.285Z,4.25
2022-09-07T22:41:16.114Z,4.03
2022-09-07T22:43:43.496Z,3.25
2022-09-07T22:46:11.581Z,3.78
2022-09-07T22:48:39.344Z,4.28
2022-09-07T22:51:06.450Z,4.50
2022-09-07T22:53:35.547Z,3.70
2022-09-07T22:56:26.386Z,2.60
2022-09-07T22:58:56.338Z,3.47
2022-09-07T23:01:23.646Z,3.58
2022-09-07T23:03:51.594Z,3.58
2022-09-07T23:06:26.183Z,3.90
2022-09-07T23:08:54.435Z,2.53
2022-09-07T23:11:21.974Z,2.50
2022-09-07T23:13:53.115Z,5.63
2022-09-07T23:16:20.579Z,3.72
2022-09-07T23:18:48.310Z,3.20
2022-09-07T23:21:15.136Z,2.92
2022-09-07T23:23:41.663Z,4.65
2022-09-07T23:26:08.784Z,3.20
2022-09-07T23:28:35.358Z,3.47
2022-09-07T23:31:02.112Z,5.25
2022-09-07T23:33:28.675Z,2.90
2022-09-07T23:36:01.032Z,3.60
2022-09-07T23:38:28.298Z,4.18
2022-09-07T23:40:55.703Z,3.35
2022-09-07T23:43:23.335Z,3.40
2022-09-07T23:45:50.336Z,4.93
2022-09-07T23:48:16.844Z,3.53
2022-09-07T23:50:44.770Z,3.75
2022-09-07T23:53:11.952Z,3.85
2022-09-07T23:55:38.948Z,4.25
2022-09-07T23:58:05.869Z,2.38
